createdAt,value
2023-10-20T00:01:42.871Z,10.04
2023-10-20T00:04:09.328Z,10.07
2023-10-20T00:06:35.839Z,10.02
2023-10-20T00:09:02.218Z,9.87
2023-10-20T00:11:28.888Z,9.91
2023-10-20T00:13:55.304Z,9.89
2023-10-20T00:16:27.963Z,9.83
2023-10-20T00:18:54.451Z,9.91
2023-10-20T00:21:20.889Z,9.96
2023-10-20T00:23:47.354Z,9.99
2023-10-20T00:26:14.638Z,9.86
2023-10-20T00:28:41.170Z,9.86
2023-10-20T00:31:07.617Z,9.83
2023-10-20T00:33:34.011Z,9.83
2023-10-20T00:36:00.420Z,9.89
2023-10-20T00:38:26.871Z,9.96
2023-10-20T00:40:54.102Z,9.85
2023-10-20T00:43:20.499Z,9.83
2023-10-20T00:45:47.009Z,9.78
2023-10-20T00:48:16.487Z,9.82
2023-10-20T00:50:44.800Z,9.79
2023-10-20T00:53:11.265Z,9.80
2023-10-20T00:55:37.748Z,9.64
2023-10-20T00:58:04.305Z,9.71
2023-10-20T01:00:30.672Z,9.73
2023-10-20T01:02:57.268Z,9.76
2023-10-20T01:05:23.971Z,9.79
2023-10-20T01:07:50.666Z,9.73
2023-10-20T01:10:17.384Z,9.70
2023-10-20T01:12:44.103Z,9.68
2023-10-20T01:15:11.303Z,9.70
2023-10-20T01:17:38.040Z,9.59
2023-10-20T01:20:05.265Z,9.56
2023-10-20T01:22:31.812Z,9.56
2023-10-20T01:24:58.401Z,9.56
2023-10-20T01:27:24.776Z,9.53
2023-10-20T01:29:51.177Z,9.54
2023-10-20T01:32:18.368Z,9.57
2023-10-20T01:34:44.785Z,9.55
2023-10-20T01:37:12.898Z,9.42
2023-10-20T01:39:39.664Z,9.39
2023-10-20T01:42:06.044Z,9.36
2023-10-20T01:44:32.640Z,9.36
2023-10-20T01:47:00.258Z,9.30
2023-10-20T01:49:26.850Z,9.32
2023-10-20T01:51:53.217Z,9.28
2023-10-20T01:54:19.605Z,9.19
2023-10-20T01:56:45.976Z,9.15
2023-10-20T01:59:12.884Z,9.08
2023-10-20T02:01:39.917Z,9.06
2023-10-20T02:04:06.354Z,9.03
2023-10-20T02:06:32.799Z,9.10
2023-10-20T02:08:59.550Z,9.16
2023-10-20T02:11:25.949Z,9.10
2023-10-20T02:13:52.649Z,8.84
2023-10-20T02:16:19.663Z,8.84
2023-10-20T02:18:46.114Z,8.84
2023-10-20T02:21:14.157Z,8.82
2023-10-20T02:23:40.808Z,8.79
2023-10-20T02:26:07.995Z,8.70
2023-10-20T02:28:34.593Z,8.75
2023-10-20T02:31:01.264Z,8.71
2023-10-20T02:33:29.533Z,8.67
2023-10-20T02:35:56.729Z,8.60
2023-10-20T02:38:23.158Z,8.65
2023-10-20T02:40:52.724Z,8.55
2023-10-20T02:43:19.332Z,8.57
2023-10-20T02:45:53.633Z,8.49
2023-10-20T02:48:20.630Z,8.51
2023-10-20T02:50:47.576Z,8.59
2023-10-20T02:53:17.073Z,8.47
2023-10-20T02:55:43.685Z,8.47
2023-10-20T02:58:13.144Z,8.45
2023-10-20T03:00:46.366Z,8.41
2023-10-20T03:03:13.481Z,8.32
2023-10-20T03:05:41.315Z,8.35
2023-10-20T03:08:07.829Z,8.30
2023-10-20T03:10:34.248Z,8.30
2023-10-20T03:13:00.602Z,8.31
2023-10-20T03:15:26.958Z,8.35
2023-10-20T03:17:53.408Z,8.29
2023-10-20T03:20:25.722Z,8.38
2023-10-20T03:22:52.515Z,8.31
2023-10-20T03:25:19.623Z,8.35
2023-10-20T03:27:46.015Z,8.31
2023-10-20T03:30:12.444Z,8.32
2023-10-20T03:32:38.938Z,8.20
2023-10-20T03:35:05.637Z,8.20
2023-10-20T03:37:32.617Z,8.12
2023-10-20T03:39:59.106Z,8.16
2023-10-20T03:42:26.635Z,8.18
2023-10-20T03:44:53.087Z,8.13
2023-10-20T03:47:19.906Z,8.08
2023-10-20T03:49:47.743Z,8.09
2023-10-20T03:52:14.506Z,8.11
2023-10-20T03:54:40.893Z,8.10
2023-10-20T03:57:07.272Z,8.01
2023-10-20T03:59:33.755Z,8.03
2023-10-20T04:02:00.166Z,8.06
2023-10-20T04:04:26.604Z,8.02
2023-10-20T04:06:53.556Z,7.96
2023-10-20T04:09:19.975Z,7.90
2023-10-20T04:11:46.360Z,7.91
2023-10-20T04:14:13.523Z,7.85
2023-10-20T04:16:42.975Z,7.81
2023-10-20T04:19:16.072Z,7.88
2023-10-20T04:21:44.341Z,7.84
2023-10-20T04:24:11.994Z,7.87
2023-10-20T04:26:38.701Z,7.84
2023-10-20T04:29:14.195Z,7.77
2023-10-20T04:32:19.742Z,7.82
2023-10-20T04:35:05.040Z,7.81
2023-10-20T04:37:49.986Z,7.73
2023-10-20T04:40:34.808Z,7.75
2023-10-20T04:43:19.963Z,7.75
2023-10-20T04:45:57.525Z,7.77
2023-10-20T04:48:42.385Z,7.71
2023-10-20T04:51:20.701Z,7.74
2023-10-20T04:53:53.862Z,7.71
2023-10-20T04:56:38.373Z,7.73
2023-10-20T04:59:11.330Z,7.68
2023-10-20T05:01:42.512Z,7.71
2023-10-20T05:04:29.262Z,7.71
2023-10-20T05:06:59.608Z,7.67
2023-10-20T05:09:26.868Z,7.65
2023-10-20T05:11:53.779Z,7.56
2023-10-20T05:14:20.167Z,7.51
2023-10-20T05:16:46.553Z,7.53
2023-10-20T05:19:13.323Z,7.53
2023-10-20T05:21:39.821Z,7.53
2023-10-20T05:24:06.432Z,7.60
2023-10-20T05:26:33.143Z,7.64
2023-10-20T05:28:59.981Z,7.57
2023-10-20T05:31:26.812Z,7.59
2023-10-20T05:33:53.541Z,7.65
2023-10-20T05:36:20.023Z,7.63
2023-10-20T05:38:46.452Z,7.67
2023-10-20T05:41:12.917Z,7.68
2023-10-20T05:43:39.715Z,7.64
2023-10-20T05:46:06.130Z,7.64
2023-10-20T05:48:32.626Z,7.61
2023-10-20T05:50:59.231Z,7.65
2023-10-20T05:53:26.052Z,7.61
2023-10-20T05:55:52.638Z,7.62
2023-10-20T05:58:19.059Z,7.62
2023-10-20T06:01:01.683Z,7.61
2023-10-20T06:03:29.316Z,7.58
2023-10-20T06:05:59.400Z,7.61
2023-10-20T06:08:25.804Z,7.57
2023-10-20T06:10:53.621Z,7.55
2023-10-20T06:13:20.078Z,7.57
2023-10-20T06:15:46.799Z,7.60
2023-10-20T06:18:25.212Z,7.63
2023-10-20T06:20:55.922Z,7.58
2023-10-20T06:23:22.423Z,7.56
2023-10-20T06:25:48.928Z,7.56
2023-10-20T06:28:15.329Z,7.61
2023-10-20T06:30:45.662Z,7.53
2023-10-20T06:33:18.203Z,7.54
2023-10-20T06:35:53.306Z,7.57
2023-10-20T06:38:22.711Z,7.50
2023-10-20T06:40:49.164Z,7.52
2023-10-20T06:43:17.521Z,7.53
2023-10-20T06:45:44.520Z,7.45
2023-10-20T06:48:11.139Z,7.44
2023-10-20T06:50:37.785Z,7.47
2023-10-20T06:53:04.197Z,7.46
2023-10-20T06:55:59.268Z,7.41
2023-10-20T06:58:19.752Z,7.46
2023-10-20T07:00:46.359Z,7.50
2023-10-20T07:03:13.522Z,7.43
2023-10-20T07:05:40.468Z,7.36
2023-10-20T07:08:07.163Z,7.39
2023-10-20T07:10:39.523Z,7.42
2023-10-20T07:13:08.011Z,7.38
2023-10-20T07:15:35.056Z,7.41
2023-10-20T07:18:01.660Z,7.37
2023-10-20T07:20:28.122Z,7.35
2023-10-20T07:22:54.702Z,7.38
2023-10-20T07:25:21.090Z,7.38
2023-10-20T07:27:47.801Z,7.36
2023-10-20T07:30:14.242Z,7.32
2023-10-20T07:32:40.689Z,7.30
2023-10-20T07:35:08.028Z,7.25
2023-10-20T07:37:35.177Z,7.29
2023-10-20T07:40:01.672Z,7.25
2023-10-20T07:42:28.194Z,7.26
2023-10-20T07:44:54.609Z,7.28
2023-10-20T07:47:21.052Z,7.23
2023-10-20T07:49:47.778Z,7.24
2023-10-20T07:52:14.220Z,7.17
2023-10-20T07:54:40.602Z,7.20
2023-10-20T07:57:08.280Z,7.21
2023-10-20T07:59:35.677Z,7.22
2023-10-20T08:02:02.812Z,7.16
2023-10-20T08:04:29.439Z,7.14
2023-10-20T08:06:56.467Z,7.15
2023-10-20T08:09:23.132Z,7.18
2023-10-20T08:11:49.525Z,7.17
2023-10-20T08:14:15.959Z,7.19
2023-10-20T08:16:42.346Z,7.15
2023-10-20T08:19:08.740Z,7.19
2023-10-20T08:21:35.096Z,7.23
2023-10-20T08:24:01.605Z,7.14
2023-10-20T08:26:28.050Z,7.15
2023-10-20T08:28:54.824Z,7.13
2023-10-20T08:31:23.136Z,7.14
2023-10-20T08:33:49.864Z,7.08
2023-10-20T08:36:16.750Z,7.11
2023-10-20T08:38:43.755Z,7.17
2023-10-20T08:41:13.580Z,7.11
2023-10-20T08:43:41.479Z,7.13
2023-10-20T08:46:10.727Z,7.09
2023-10-20T08:48:37.895Z,7.09
2023-10-20T08:51:04.797Z,7.11
2023-10-20T08:53:33.006Z,7.14
2023-10-20T08:55:59.411Z,7.19
2023-10-20T08:58:28.419Z,7.13
2023-10-20T09:03:39.640Z,7.08
2023-10-20T09:06:15.278Z,7.07
2023-10-20T09:08:42.664Z,7.09
2023-10-20T09:11:09.207Z,7.11
2023-10-20T09:13:36.130Z,7.19
2023-10-20T09:16:04.532Z,7.13
2023-10-20T09:18:32.355Z,7.11
2023-10-20T09:21:02.521Z,7.09
2023-10-20T09:23:28.964Z,7.11
2023-10-20T09:25:55.479Z,7.16
2023-10-20T09:28:21.891Z,7.14
2023-10-20T09:30:49.582Z,7.13
2023-10-20T09:33:16.258Z,7.08
2023-10-20T09:35:43.659Z,7.08
2023-10-20T09:38:10.951Z,7.09
2023-10-20T09:40:37.382Z,7.09
2023-10-20T09:43:15.164Z,7.10
2023-10-20T09:45:51.730Z,7.08
2023-10-20T09:48:19.924Z,7.09
2023-10-20T09:50:52.067Z,7.11
2023-10-20T09:53:18.686Z,7.11
2023-10-20T09:55:46.147Z,7.05
2023-10-20T09:58:13.774Z,7.00
2023-10-20T10:00:43.290Z,7.03
2023-10-20T10:03:10.207Z,7.02
2023-10-20T10:05:41.171Z,7.03
2023-10-20T10:08:11.135Z,6.99
2023-10-20T10:10:37.513Z,7.00
2023-10-20T10:13:06.831Z,7.05
2023-10-20T10:15:44.571Z,7.05
2023-10-20T10:18:12.267Z,7.02
2023-10-20T10:20:48.463Z,6.98
2023-10-20T10:23:17.900Z,6.99
2023-10-20T10:25:44.966Z,7.01
2023-10-20T10:28:14.665Z,7.07
2023-10-20T10:30:41.543Z,7.04
2023-10-20T10:33:09.658Z,7.10
2023-10-20T10:35:37.340Z,7.15
2023-10-20T10:38:10.637Z,7.09
2023-10-20T10:40:45.733Z,7.10
2023-10-20T10:43:16.579Z,7.11
2023-10-20T10:45:43.397Z,7.06
2023-10-20T10:48:16.351Z,7.09
2023-10-20T10:50:43.693Z,7.02
2023-10-20T10:53:11.232Z,7.06
2023-10-20T10:55:37.688Z,7.18
2023-10-20T10:58:05.805Z,7.15
2023-10-20T11:00:32.246Z,7.21
2023-10-20T11:02:59.098Z,7.18
2023-10-20T11:05:25.663Z,7.19
2023-10-20T11:07:55.683Z,7.15
2023-10-20T11:10:22.087Z,7.14
2023-10-20T11:12:51.209Z,7.13
2023-10-20T11:15:17.606Z,7.14
2023-10-20T11:17:44.017Z,7.16
2023-10-20T11:20:14.717Z,7.18
2023-10-20T11:22:41.161Z,7.21
2023-10-20T11:25:07.758Z,7.29
2023-10-20T11:27:40.766Z,7.27
2023-10-20T11:30:07.862Z,7.33
2023-10-20T11:32:34.590Z,7.35
2023-10-20T11:35:01.005Z,7.36
2023-10-20T11:37:27.366Z,7.35
2023-10-20T11:39:53.748Z,7.27
2023-10-20T11:42:20.212Z,7.28
2023-10-20T11:44:47.423Z,7.32
2023-10-20T11:47:13.826Z,7.30
2023-10-20T11:49:40.277Z,7.28
2023-10-20T11:52:09.693Z,7.33
2023-10-20T11:54:36.710Z,7.26
2023-10-20T11:57:03.315Z,7.27
2023-10-20T11:59:29.858Z,7.32
2023-10-20T12:01:56.361Z,7.34
2023-10-20T12:04:22.833Z,7.34
2023-10-20T12:06:49.734Z,7.36
2023-10-20T12:09:20.712Z,7.30
2023-10-20T12:11:47.506Z,7.30
2023-10-20T12:14:15.402Z,7.42
2023-10-20T12:16:42.485Z,7.38
2023-10-20T12:19:08.885Z,7.39
2023-10-20T12:21:35.999Z,7.41
2023-10-20T12:24:02.431Z,7.40
2023-10-20T12:26:28.893Z,7.45
2023-10-20T12:28:57.995Z,7.45
2023-10-20T12:31:25.842Z,7.37
2023-10-20T12:33:52.334Z,7.35
2023-10-20T12:36:18.706Z,7.39
2023-10-20T12:38:45.326Z,7.41
2023-10-20T12:41:14.960Z,7.36
2023-10-20T12:43:41.627Z,7.38
2023-10-20T12:46:08.261Z,7.38
2023-10-20T12:48:35.489Z,7.36
2023-10-20T12:51:11.330Z,7.35
2023-10-20T12:53:37.940Z,7.33
2023-10-20T12:56:04.702Z,7.42
2023-10-20T12:58:31.076Z,7.39
2023-10-20T13:00:58.224Z,7.39
2023-10-20T13:03:24.856Z,7.42
2023-10-20T13:05:51.326Z,7.41
2023-10-20T13:08:17.793Z,7.40
2023-10-20T13:10:45.823Z,7.37
2023-10-20T13:13:13.161Z,7.34
2023-10-20T13:15:40.424Z,7.29
2023-10-20T13:18:06.962Z,7.29
2023-10-20T13:20:33.405Z,7.25
2023-10-20T13:22:59.840Z,7.22
2023-10-20T13:25:28.107Z,7.21
2023-10-20T13:27:54.536Z,7.10
2023-10-20T13:30:21.013Z,7.10
2023-10-20T13:32:47.743Z,7.11
2023-10-20T13:35:14.215Z,7.10
2023-10-20T13:37:40.895Z,7.16
2023-10-20T13:40:10.123Z,7.22
2023-10-20T13:42:36.646Z,7.15
2023-10-20T13:45:04.555Z,7.25
2023-10-20T13:47:31.806Z,7.22
2023-10-20T13:49:58.412Z,7.27
2023-10-20T13:52:24.895Z,7.28
2023-10-20T13:54:51.445Z,7.25
2023-10-20T13:57:18.013Z,7.32
2023-10-20T13:59:44.868Z,7.32
2023-10-20T14:02:11.348Z,7.37
2023-10-20T14:04:37.819Z,7.37
2023-10-20T14:07:04.503Z,7.28
2023-10-20T14:09:31.627Z,7.27
2023-10-20T14:11:58.011Z,7.22
2023-10-20T14:14:24.490Z,7.12
2023-10-20T14:16:50.929Z,7.09
2023-10-20T14:19:17.303Z,7.10
2023-10-20T14:21:43.684Z,7.17
2023-10-20T14:24:10.081Z,7.12
2023-10-20T14:26:36.479Z,7.11
2023-10-20T14:29:02.953Z,7.16
2023-10-20T14:31:30.870Z,7.15
2023-10-20T14:33:59.601Z,7.11
2023-10-20T14:36:26.101Z,7.11
2023-10-20T14:38:52.488Z,7.11
2023-10-20T14:41:18.959Z,7.14
2023-10-20T14:43:45.349Z,7.14
2023-10-20T14:46:11.861Z,7.14
2023-10-20T14:48:38.496Z,7.16
2023-10-20T14:51:08.656Z,7.24
2023-10-20T14:53:37.972Z,7.33
2023-10-20T14:56:04.846Z,7.33
2023-10-20T14:58:31.888Z,7.38
2023-10-20T15:00:58.383Z,7.37
2023-10-20T15:03:24.962Z,7.42
2023-10-20T15:05:51.844Z,7.40
2023-10-20T15:08:18.291Z,7.46
2023-10-20T15:10:44.717Z,7.48
2023-10-20T15:13:11.114Z,7.50
2023-10-20T15:15:37.826Z,7.51
2023-10-20T15:18:04.428Z,7.58
2023-10-20T15:20:30.920Z,7.61
2023-10-20T15:23:10.567Z,7.67
2023-10-20T15:25:43.388Z,7.64
2023-10-20T15:28:09.780Z,7.73
2023-10-20T15:30:36.241Z,7.78
2023-10-20T15:33:03.010Z,7.85
2023-10-20T15:35:29.856Z,7.81
2023-10-20T15:37:56.399Z,7.92
2023-10-20T15:40:23.435Z,7.91
2023-10-20T15:42:51.319Z,7.98
2023-10-20T15:45:19.939Z,7.97
2023-10-20T15:47:48.488Z,8.04
2023-10-20T15:50:15.145Z,8.07
2023-10-20T15:52:41.827Z,8.09
2023-10-20T15:55:08.591Z,8.10
2023-10-20T15:57:36.310Z,8.09
2023-10-20T16:00:02.794Z,8.16
2023-10-20T16:02:29.274Z,8.18
2023-10-20T16:04:55.719Z,8.17
2023-10-20T16:07:22.170Z,8.20
2023-10-20T16:09:48.706Z,8.23
2023-10-20T16:12:16.066Z,8.25
2023-10-20T16:14:43.222Z,8.24
2023-10-20T16:17:10.101Z,8.20
2023-10-20T16:19:37.334Z,8.32
2023-10-20T16:22:04.001Z,8.26
2023-10-20T16:24:30.447Z,8.26
2023-10-20T16:26:56.886Z,8.31
2023-10-20T16:29:23.278Z,8.30
2023-10-20T16:31:49.748Z,8.32
2023-10-20T16:34:16.318Z,8.33
2023-10-20T16:36:42.682Z,8.31
2023-10-20T16:39:09.089Z,8.33
2023-10-20T16:41:35.614Z,8.39
2023-10-20T16:44:02.125Z,8.42
2023-10-20T16:46:28.567Z,8.38
2023-10-20T16:48:55.260Z,8.38
2023-10-20T16:51:21.829Z,8.33
2023-10-20T16:53:48.700Z,8.35
2023-10-20T16:56:15.088Z,8.38
2023-10-20T16:58:41.515Z,8.40
2023-10-20T17:01:08.283Z,8.42
2023-10-20T17:03:35.029Z,8.39
2023-10-20T17:06:05.689Z,8.36
2023-10-20T17:08:32.351Z,8.37
2023-10-20T17:11:01.845Z,8.40
2023-10-20T17:13:28.205Z,8.41
2023-10-20T17:15:54.590Z,8.43
2023-10-20T17:18:21.195Z,8.44
2023-10-20T17:20:48.192Z,8.44
2023-10-20T17:23:15.705Z,8.46
2023-10-20T17:25:45.641Z,8.48
2023-10-20T17:28:12.323Z,8.51
2023-10-20T17:30:38.694Z,8.54
2023-10-20T17:33:05.481Z,8.49
2023-10-20T17:35:34.810Z,8.54
2023-10-20T17:38:02.060Z,8.56
2023-10-20T17:40:28.609Z,8.54
2023-10-20T17:42:55.007Z,8.54
2023-10-20T17:45:24.777Z,8.56
2023-10-20T17:47:51.322Z,8.56
2023-10-20T17:50:17.895Z,8.61
2023-10-20T17:52:44.291Z,8.64
2023-10-20T17:55:11.073Z,8.66
2023-10-20T17:57:37.837Z,8.70
2023-10-20T18:00:07.104Z,8.67
2023-10-20T18:02:34.865Z,8.72
2023-10-20T18:05:01.973Z,8.74
2023-10-20T18:07:28.407Z,8.85
2023-10-20T18:09:56.274Z,8.79
2023-10-20T18:12:22.646Z,8.76
2023-10-20T18:14:49.445Z,8.79
2023-10-20T18:17:15.998Z,8.86
2023-10-20T18:19:43.232Z,8.81
2023-10-20T18:22:09.661Z,8.83
2023-10-20T18:24:36.220Z,8.84
2023-10-20T18:27:02.944Z,8.81
2023-10-20T18:29:29.474Z,8.88
2023-10-20T18:31:55.919Z,8.88
2023-10-20T18:34:22.285Z,8.79
2023-10-20T18:36:48.892Z,8.85
2023-10-20T18:39:19.055Z,8.85
2023-10-20T18:41:45.483Z,8.89
2023-10-20T18:44:12.380Z,8.91
2023-10-20T18:46:39.268Z,8.86
2023-10-20T18:49:05.651Z,8.90
2023-10-20T18:51:32.546Z,8.91
2023-10-20T18:53:58.993Z,8.93
2023-10-20T18:56:25.409Z,8.94
2023-10-20T18:58:51.824Z,8.97
2023-10-20T19:01:18.286Z,8.89
2023-10-20T19:03:44.772Z,8.88
2023-10-20T19:06:13.646Z,9.08
2023-10-20T19:08:40.465Z,9.02
2023-10-20T19:11:09.173Z,9.00
2023-10-20T19:13:35.598Z,8.91
2023-10-20T19:16:02.152Z,8.96
2023-10-20T19:18:28.678Z,8.93
2023-10-20T19:20:58.827Z,8.87
2023-10-20T19:23:25.661Z,8.84
2023-10-20T19:25:59.075Z,8.78
2023-10-20T19:28:25.440Z,8.88
2023-10-20T19:30:57.048Z,8.87
2023-10-20T19:33:23.549Z,8.82
2023-10-20T19:35:50.205Z,8.84
2023-10-20T19:38:16.601Z,8.83
2023-10-20T19:40:43.051Z,8.98
2023-10-20T19:43:09.422Z,8.96
2023-10-20T19:45:36.176Z,8.99
2023-10-20T19:48:02.615Z,9.05
2023-10-20T19:50:29.068Z,9.14
2023-10-20T19:52:55.440Z,9.36
2023-10-20T19:55:21.826Z,9.55
2023-10-20T19:57:48.470Z,9.59
2023-10-20T20:00:20.177Z,9.65
2023-10-20T20:02:46.673Z,9.64
2023-10-20T20:05:13.140Z,9.66
2023-10-20T20:07:40.438Z,9.74
2023-10-20T20:10:08.106Z,9.83
2023-10-20T20:12:34.536Z,9.78
2023-10-20T20:15:00.972Z,9.77
2023-10-20T20:17:27.366Z,9.83
2023-10-20T20:19:56.992Z,9.81
2023-10-20T20:22:23.567Z,9.72
2023-10-20T20:24:49.931Z,9.77
2023-10-20T20:27:16.372Z,9.73
2023-10-20T20:29:42.802Z,9.72
2023-10-20T20:32:09.236Z,9.59
2023-10-20T20:34:35.662Z,9.47
2023-10-20T20:37:02.031Z,9.34
2023-10-20T20:39:28.990Z,9.30
2023-10-20T20:41:55.537Z,9.38
2023-10-20T20:44:22.001Z,9.48
2023-10-20T20:46:48.409Z,9.90
2023-10-20T20:49:15.127Z,9.97
2023-10-20T20:51:41.860Z,9.95
2023-10-20T20:54:08.277Z,9.96
2023-10-20T20:56:34.830Z,10.02
2023-10-20T20:59:01.256Z,10.14
2023-10-20T21:01:27.708Z,10.28
2023-10-20T21:04:00.895Z,10.31
2023-10-20T21:06:28.181Z,10.32
2023-10-20T21:08:54.713Z,10.38
2023-10-20T21:11:21.266Z,10.44
2023-10-20T21:13:47.860Z,10.57
2023-10-20T21:16:14.559Z,10.67
2023-10-20T21:18:41.174Z,10.71
2023-10-20T21:21:08.451Z,10.60
2023-10-20T21:23:34.919Z,10.71
2023-10-20T21:26:01.776Z,10.75
2023-10-20T21:28:28.218Z,10.70
2023-10-20T21:30:54.635Z,10.79
2023-10-20T21:33:21.131Z,10.79
2023-10-20T21:35:47.680Z,10.77
2023-10-20T21:38:14.082Z,10.70
2023-10-20T21:40:44.354Z,10.70
2023-10-20T21:43:11.046Z,10.60
2023-10-20T21:45:37.942Z,10.53
2023-10-20T21:48:05.490Z,10.49
2023-10-20T21:50:32.051Z,10.54
2023-10-20T21:52:58.957Z,10.71
2023-10-20T21:55:25.527Z,10.74
2023-10-20T21:57:51.893Z,10.82
2023-10-20T22:00:18.422Z,10.93
2023-10-20T22:02:45.101Z,10.99
2023-10-20T22:05:11.630Z,11.06
2023-10-20T22:07:39.234Z,11.04
2023-10-20T22:10:09.682Z,11.06
2023-10-20T22:12:36.127Z,11.09
2023-10-20T22:15:02.527Z,11.13
2023-10-20T22:17:29.345Z,11.11
2023-10-20T22:19:55.760Z,11.07
2023-10-20T22:22:22.196Z,11.06
2023-10-20T22:24:48.869Z,11.01
2023-10-20T22:27:17.136Z,11.01
2023-10-20T22:29:43.629Z,11.00
2023-10-20T22:32:10.063Z,10.99
2023-10-20T22:34:36.476Z,11.04
2023-10-20T22:37:03.351Z,11.02
2023-10-20T22:39:29.719Z,11.02
2023-10-20T22:42:00.665Z,10.93
2023-10-20T22:44:27.282Z,11.00
2023-10-20T22:46:53.672Z,10.95
2023-10-20T22:49:20.037Z,11.04
2023-10-20T22:51:46.494Z,11.06
2023-10-20T22:54:12.931Z,11.03
2023-10-20T22:56:39.345Z,11.03
2023-10-20T22:59:05.710Z,11.02
2023-10-20T23:01:32.155Z,11.07
2023-10-20T23:03:59.027Z,11.13
2023-10-20T23:06:25.580Z,11.19
2023-10-20T23:08:52.037Z,11.27
2023-10-20T23:11:19.080Z,11.23
2023-10-20T23:13:45.801Z,11.23
2023-10-20T23:16:12.186Z,11.23
2023-10-20T23:18:38.666Z,11.22
2023-10-20T23:21:05.149Z,11.16
2023-10-20T23:23:31.559Z,11.16
2023-10-20T23:25:57.927Z,11.09
2023-10-20T23:28:24.311Z,11.13
2023-10-20T23:30:50.727Z,11.02
2023-10-20T23:33:17.727Z,10.94
2023-10-20T23:35:44.309Z,10.99
2023-10-20T23:38:10.788Z,11.00
2023-10-20T23:40:37.171Z,10.91
2023-10-20T23:43:03.640Z,10.98
2023-10-20T23:45:30.001Z,11.10
2023-10-20T23:47:56.485Z,11.16
2023-10-20T23:50:22.972Z,11.25
2023-10-20T23:52:49.416Z,11.28
2023-10-20T23:55:15.788Z,11.27
2023-10-20T23:57:42.461Z,11.35
